sensor_id;sensor_type;location;lat;lon;timestamp;P1;durP1;ratioP1;P2;durP2;ratioP2
1467;SDS011;727;48.892;9.544;2023-11-21T00:00:43;6.13;;;3.63;;
1467;SDS011;727;48.892;9.544;2023-11-21T00:03:12;11.77;;;3.40;;
1467;SDS011;727;48.892;9.544;2023-11-21T00:05:39;8.60;;;3.35;;
1467;SDS011;727;48.892;9.544;2023-11-21T00:08:07;3.47;;;2.92;;
1467;SDS011;727;48.892;9.544;2023-11-21T00:10:34;3.20;;;2.90;;
1467;SDS011;727;48.892;9.544;2023-11-21T00:13:03;5.85;;;2.60;;
1467;SDS011;727;48.892;9.544;2023-11-21T00:15:29;3.90;;;2.95;;
1467;SDS011;727;48.892;9.544;2023-11-21T00:17:56;5.63;;;3.55;;
1467;SDS011;727;48.892;9.544;2023-11-21T00:20:24;4.38;;;2.70;;
1467;SDS011;727;48.892;9.544;2023-11-21T00:22:51;12.95;;;4.40;;
1467;SDS011;727;48.892;9.544;2023-11-21T00:25:18;4.95;;;4.20;;
1467;SDS011;727;48.892;9.544;2023-11-21T00:27:45;7.88;;;4.38;;
1467;SDS011;727;48.892;9.544;2023-11-21T00:30:12;8.18;;;4.90;;
1467;SDS011;727;48.892;9.544;2023-11-21T00:32:39;5.47;;;3.80;;
1467;SDS011;727;48.892;9.544;2023-11-21T00:35:06;3.55;;;3.25;;
1467;SDS011;727;48.892;9.544;2023-11-21T00:37:35;5.88;;;3.38;;
1467;SDS011;727;48.892;9.544;2023-11-21T00:40:04;4.18;;;3.35;;
1467;SDS011;727;48.892;9.544;2023-11-21T00:42:31;7.63;;;3.53;;
1467;SDS011;727;48.892;9.544;2023-11-21T00:44:59;4.10;;;3.00;;
1467;SDS011;727;48.892;9.544;2023-11-21T00:47:26;5.07;;;3.22;;
1467;SDS011;727;48.892;9.544;2023-11-21T00:49:52;13.07;;;4.10;;
1467;SDS011;727;48.892;9.544;2023-11-21T00:52:20;5.78;;;3.55;;
1467;SDS011;727;48.892;9.544;2023-11-21T00:54:48;6.90;;;3.50;;
1467;SDS011;727;48.892;9.544;2023-11-21T00:57:15;5.70;;;3.55;;
1467;SDS011;727;48.892;9.544;2023-11-21T00:59:42;4.68;;;3.30;;
1467;SDS011;727;48.892;9.544;2023-11-21T01:02:09;4.68;;;3.70;;
1467;SDS011;727;48.892;9.544;2023-11-21T01:04:36;5.13;;;2.58;;
1467;SDS011;727;48.892;9.544;2023-11-21T01:07:03;5.97;;;3.85;;
1467;SDS011;727;48.892;9.544;2023-11-21T01:09:31;8.35;;;4.55;;
1467;SDS011;727;48.892;9.544;2023-11-21T01:11:59;8.18;;;3.15;;
1467;SDS011;727;48.892;9.544;2023-11-21T01:14:26;6.20;;;3.08;;
1467;SDS011;727;48.892;9.544;2023-11-21T01:16:53;5.80;;;3.00;;
1467;SDS011;727;48.892;9.544;2023-11-21T01:19:20;8.18;;;3.78;;
1467;SDS011;727;48.892;9.544;2023-11-21T01:21:47;6.07;;;3.15;;
1467;SDS011;727;48.892;9.544;2023-11-21T01:24:14;5.38;;;3.50;;
1467;SDS011;727;48.892;9.544;2023-11-21T01:26:41;5.00;;;2.70;;
1467;SDS011;727;48.892;9.544;2023-11-21T01:29:09;7.95;;;3.10;;
1467;SDS011;727;48.892;9.544;2023-11-21T01:31:36;7.43;;;3.55;;
1467;SDS011;727;48.892;9.544;2023-11-21T01:34:03;5.85;;;2.60;;
1467;SDS011;727;48.892;9.544;2023-11-21T01:36:30;7.18;;;3.28;;
1467;SDS011;727;48.892;9.544;2023-11-21T01:38:58;4.13;;;3.00;;
1467;SDS011;727;48.892;9.544;2023-11-21T01:41:25;8.90;;;3.45;;
1467;SDS011;727;48.892;9.544;2023-11-21T01:43:53;4.90;;;2.85;;
1467;SDS011;727;48.892;9.544;2023-11-21T01:46:21;4.57;;;2.67;;
1467;SDS011;727;48.892;9.544;2023-11-21T01:48:49;5.75;;;3.15;;
1467;SDS011;727;48.892;9.544;2023-11-21T01:51:17;4.75;;;2.75;;
1467;SDS011;727;48.892;9.544;2023-11-21T01:53:44;5.38;;;3.00;;
1467;SDS011;727;48.892;9.544;2023-11-21T01:56:11;6.57;;;3.03;;
1467;SDS011;727;48.892;9.544;2023-11-21T01:58:39;8.45;;;3.20;;
1467;SDS011;727;48.892;9.544;2023-11-21T02:01:06;8.07;;;3.10;;
1467;SDS011;727;48.892;9.544;2023-11-21T02:03:35;8.35;;;3.63;;
1467;SDS011;727;48.892;9.544;2023-11-21T02:06:02;4.63;;;2.70;;
1467;SDS011;727;48.892;9.544;2023-11-21T02:08:29;6.22;;;3.40;;
1467;SDS011;727;48.892;9.544;2023-11-21T02:10:56;7.85;;;3.08;;
1467;SDS011;727;48.892;9.544;2023-11-21T02:13:23;4.18;;;3.08;;
1467;SDS011;727;48.892;9.544;2023-11-21T02:15:49;4.78;;;3.50;;
1467;SDS011;727;48.892;9.544;2023-11-21T02:18:19;7.93;;;3.10;;
1467;SDS011;727;48.892;9.544;2023-11-21T02:20:48;7.97;;;3.65;;
1467;SDS011;727;48.892;9.544;2023-11-21T02:23:17;3.75;;;2.80;;
1467;SDS011;727;48.892;9.544;2023-11-21T02:25:44;6.68;;;3.15;;
1467;SDS011;727;48.892;9.544;2023-11-21T02:28:12;4.55;;;3.55;;
1467;SDS011;727;48.892;9.544;2023-11-21T02:30:40;4.07;;;3.00;;
1467;SDS011;727;48.892;9.544;2023-11-21T02:33:07;8.63;;;3.65;;
1467;SDS011;727;48.892;9.544;2023-11-21T02:35:34;6.32;;;2.83;;
1467;SDS011;727;48.892;9.544;2023-11-21T02:38:01;5.40;;;4.03;;
1467;SDS011;727;48.892;9.544;2023-11-21T02:40:29;3.42;;;3.10;;
1467;SDS011;727;48.892;9.544;2023-11-21T02:42:56;4.80;;;3.53;;
1467;SDS011;727;48.892;9.544;2023-11-21T02:45:24;6.97;;;3.30;;
1467;SDS011;727;48.892;9.544;2023-11-21T02:47:51;6.03;;;3.97;;
1467;SDS011;727;48.892;9.544;2023-11-21T02:50:21;5.30;;;4.00;;
1467;SDS011;727;48.892;9.544;2023-11-21T02:52:48;5.03;;;3.90;;
1467;SDS011;727;48.892;9.544;2023-11-21T02:55:15;6.40;;;3.85;;
1467;SDS011;727;48.892;9.544;2023-11-21T02:57:43;7.07;;;4.53;;
1467;SDS011;727;48.892;9.544;2023-11-21T03:00:10;8.82;;;4.55;;
1467;SDS011;727;48.892;9.544;2023-11-21T03:02:39;6.03;;;4.25;;
1467;SDS011;727;48.892;9.544;2023-11-21T03:05:07;13.52;;;5.03;;
1467;SDS011;727;48.892;9.544;2023-11-21T03:07:34;5.20;;;4.80;;
1467;SDS011;727;48.892;9.544;2023-11-21T03:10:02;6.70;;;5.00;;
1467;SDS011;727;48.892;9.544;2023-11-21T03:12:29;8.00;;;4.50;;
1467;SDS011;727;48.892;9.544;2023-11-21T03:14:57;11.93;;;6.05;;
1467;SDS011;727;48.892;9.544;2023-11-21T03:17:24;15.93;;;5.05;;
1467;SDS011;727;48.892;9.544;2023-11-21T03:19:51;6.75;;;4.10;;
1467;SDS011;727;48.892;9.544;2023-11-21T03:22:18;7.72;;;4.38;;
1467;SDS011;727;48.892;9.544;2023-11-21T03:24:45;5.28;;;4.50;;
1467;SDS011;727;48.892;9.544;2023-11-21T03:27:11;5.10;;;4.60;;
1467;SDS011;727;48.892;9.544;2023-11-21T03:29:38;7.50;;;4.53;;
1467;SDS011;727;48.892;9.544;2023-11-21T03:32:07;5.80;;;4.80;;
1467;SDS011;727;48.892;9.544;2023-11-21T03:34:33;9.63;;;5.72;;
1467;SDS011;727;48.892;9.544;2023-11-21T03:37:01;4.75;;;4.28;;
1467;SDS011;727;48.892;9.544;2023-11-21T03:39:28;4.53;;;4.07;;
1467;SDS011;727;48.892;9.544;2023-11-21T03:41:54;7.35;;;5.22;;
1467;SDS011;727;48.892;9.544;2023-11-21T03:44:21;7.13;;;4.30;;
1467;SDS011;727;48.892;9.544;2023-11-21T03:46:48;5.15;;;4.10;;
1467;SDS011;727;48.892;9.544;2023-11-21T03:49:16;5.85;;;4.72;;
1467;SDS011;727;48.892;9.544;2023-11-21T03:51:43;5.30;;;3.90;;
1467;SDS011;727;48.892;9.544;2023-11-21T03:54:09;7.78;;;3.92;;
1467;SDS011;727;48.892;9.544;2023-11-21T03:56:36;8.43;;;4.78;;
1467;SDS011;727;48.892;9.544;2023-11-21T03:59:03;6.00;;;3.70;;
1467;SDS011;727;48.892;9.544;2023-11-21T04:01:29;6.47;;;5.03;;
1467;SDS011;727;48.892;9.544;2023-11-21T04:03:56;5.50;;;5.00;;
1467;SDS011;727;48.892;9.544;2023-11-21T04:06:24;4.30;;;3.67;;
1467;SDS011;727;48.892;9.544;2023-11-21T04:08:51;5.18;;;4.10;;
1467;SDS011;727;48.892;9.544;2023-11-21T04:11:18;4.63;;;4.22;;
1467;SDS011;727;48.892;9.544;2023-11-21T04:13:45;8.50;;;4.60;;
1467;SDS011;727;48.892;9.544;2023-11-21T04:16:12;4.68;;;3.67;;
1467;SDS011;727;48.892;9.544;2023-11-21T04:18:39;4.97;;;3.40;;
1467;SDS011;727;48.892;9.544;2023-11-21T04:21:06;5.25;;;3.72;;
1467;SDS011;727;48.892;9.544;2023-11-21T04:23:35;6.88;;;3.53;;
1467;SDS011;727;48.892;9.544;2023-11-21T04:26:02;4.22;;;3.38;;
1467;SDS011;727;48.892;9.544;2023-11-21T04:28:29;3.33;;;3.03;;
1467;SDS011;727;48.892;9.544;2023-11-21T04:30:55;5.60;;;2.60;;
1467;SDS011;727;48.892;9.544;2023-11-21T04:33:22;4.45;;;3.33;;
1467;SDS011;727;48.892;9.544;2023-11-21T04:35:50;5.10;;;3.50;;
1467;SDS011;727;48.892;9.544;2023-11-21T04:38:17;5.22;;;3.03;;
1467;SDS011;727;48.892;9.544;2023-11-21T04:40:45;4.25;;;3.20;;
1467;SDS011;727;48.892;9.544;2023-11-21T04:43:12;4.80;;;3.28;;
1467;SDS011;727;48.892;9.544;2023-11-21T04:45:38;4.47;;;3.47;;
1467;SDS011;727;48.892;9.544;2023-11-21T04:48:06;5.10;;;3.60;;
1467;SDS011;727;48.892;9.544;2023-11-21T04:50:33;4.93;;;4.40;;
1467;SDS011;727;48.892;9.544;2023-11-21T04:52:59;7.00;;;3.92;;
1467;SDS011;727;48.892;9.544;2023-11-21T04:55:27;6.78;;;3.95;;
1467;SDS011;727;48.892;9.544;2023-11-21T04:57:55;5.90;;;3.90;;
1467;SDS011;727;48.892;9.544;2023-11-21T05:00:22;7.90;;;4.22;;
1467;SDS011;727;48.892;9.544;2023-11-21T05:02:49;6.93;;;3.38;;
1467;SDS011;727;48.892;9.544;2023-11-21T05:05:15;2.92;;;2.70;;
1467;SDS011;727;48.892;9.544;2023-11-21T05:07:42;5.28;;;3.15;;
1467;SDS011;727;48.892;9.544;2023-11-21T05:10:10;3.92;;;3.30;;
1467;SDS011;727;48.892;9.544;2023-11-21T05:12:39;6.85;;;3.58;;
1467;SDS011;727;48.892;9.544;2023-11-21T05:15:09;5.35;;;3.40;;
1467;SDS011;727;48.892;9.544;2023-11-21T05:17:38;5.95;;;3.55;;
1467;SDS011;727;48.892;9.544;2023-11-21T05:20:07;4.50;;;3.97;;
1467;SDS011;727;48.892;9.544;2023-11-21T05:22:35;4.13;;;3.72;;
1467;SDS011;727;48.892;9.544;2023-11-21T05:25:02;5.45;;;4.63;;
1467;SDS011;727;48.892;9.544;2023-11-21T05:27:30;5.38;;;4.32;;
1467;SDS011;727;48.892;9.544;2023-11-21T05:29:57;5.30;;;4.80;;
1467;SDS011;727;48.892;9.544;2023-11-21T05:32:25;5.30;;;4.85;;
1467;SDS011;727;48.892;9.544;2023-11-21T05:34:52;7.10;;;5.05;;
1467;SDS011;727;48.892;9.544;2023-11-21T05:37:19;7.43;;;5.15;;
1467;SDS011;727;48.892;9.544;2023-11-21T05:39:46;11.85;;;7.03;;
1467;SDS011;727;48.892;9.544;2023-11-21T05:42:13;12.82;;;9.55;;
1467;SDS011;727;48.892;9.544;2023-11-21T05:44:41;10.02;;;8.65;;
1467;SDS011;727;48.892;9.544;2023-11-21T05:47:09;17.55;;;10.07;;
1467;SDS011;727;48.892;9.544;2023-11-21T05:49:37;12.50;;;9.20;;
1467;SDS011;727;48.892;9.544;2023-11-21T05:52:04;17.17;;;10.60;;
1467;SDS011;727;48.892;9.544;2023-11-21T05:54:31;13.65;;;9.63;;
1467;SDS011;727;48.892;9.544;2023-11-21T05:56:58;9.82;;;7.63;;
1467;SDS011;727;48.892;9.544;2023-11-21T05:59:25;6.85;;;6.05;;
1467;SDS011;727;48.892;9.544;2023-11-21T06:01:52;12.15;;;8.02;;
1467;SDS011;727;48.892;9.544;2023-11-21T06:04:19;11.20;;;6.95;;
1467;SDS011;727;48.892;9.544;2023-11-21T06:06:50;14.88;;;8.68;;
1467;SDS011;727;48.892;9.544;2023-11-21T06:09:17;8.60;;;6.80;;
1467;SDS011;727;48.892;9.544;2023-11-21T06:11:44;9.35;;;5.53;;
1467;SDS011;727;48.892;9.544;2023-11-21T06:14:11;8.38;;;6.55;;
1467;SDS011;727;48.892;9.544;2023-11-21T06:16:38;8.63;;;6.47;;
1467;SDS011;727;48.892;9.544;2023-11-21T06:19:05;8.85;;;6.43;;
1467;SDS011;727;48.892;9.544;2023-11-21T06:21:32;9.25;;;6.50;;
1467;SDS011;727;48.892;9.544;2023-11-21T06:24:00;6.85;;;5.97;;
1467;SDS011;727;48.892;9.544;2023-11-21T06:26:27;9.27;;;6.00;;
1467;SDS011;727;48.892;9.544;2023-11-21T06:28:53;14.77;;;7.30;;
1467;SDS011;727;48.892;9.544;2023-11-21T06:31:22;7.22;;;6.30;;
1467;SDS011;727;48.892;9.544;2023-11-21T06:33:48;7.50;;;6.72;;
1467;SDS011;727;48.892;9.544;2023-11-21T06:36:17;7.03;;;6.22;;
1467;SDS011;727;48.892;9.544;2023-11-21T06:38:43;9.90;;;7.47;;
1467;SDS011;727;48.892;9.544;2023-11-21T06:41:12;6.32;;;5.70;;
1467;SDS011;727;48.892;9.544;2023-11-21T06:43:40;11.57;;;6.10;;
1467;SDS011;727;48.892;9.544;2023-11-21T06:46:10;6.57;;;5.40;;
1467;SDS011;727;48.892;9.544;2023-11-21T06:48:39;7.72;;;5.35;;
1467;SDS011;727;48.892;9.544;2023-11-21T06:51:08;9.13;;;5.35;;
1467;SDS011;727;48.892;9.544;2023-11-21T06:53:36;9.88;;;5.35;;
1467;SDS011;727;48.892;9.544;2023-11-21T06:56:04;5.60;;;5.05;;
1467;SDS011;727;48.892;9.544;2023-11-21T06:58:33;9.63;;;4.80;;
1467;SDS011;727;48.892;9.544;2023-11-21T07:01:00;8.52;;;5.80;;
1467;SDS011;727;48.892;9.544;2023-11-21T07:03:27;11.70;;;6.57;;
1467;SDS011;727;48.892;9.544;2023-11-21T07:05:53;8.07;;;5.97;;
1467;SDS011;727;48.892;9.544;2023-11-21T07:08:20;20.67;;;11.07;;
1467;SDS011;727;48.892;9.544;2023-11-21T07:10:47;10.40;;;6.80;;
1467;SDS011;727;48.892;9.544;2023-11-21T07:13:14;6.82;;;5.30;;
1467;SDS011;727;48.892;9.544;2023-11-21T07:15:42;5.97;;;4.70;;
1467;SDS011;727;48.892;9.544;2023-11-21T07:18:09;6.75;;;5.60;;
1467;SDS011;727;48.892;9.544;2023-11-21T07:20:36;6.85;;;5.50;;
1467;SDS011;727;48.892;9.544;2023-11-21T07:23:03;9.02;;;7.03;;
1467;SDS011;727;48.892;9.544;2023-11-21T07:25:30;7.45;;;5.57;;
1467;SDS011;727;48.892;9.544;2023-11-21T07:27:58;6.82;;;6.10;;
1467;SDS011;727;48.892;9.544;2023-11-21T07:30:25;7.50;;;6.75;;
1467;SDS011;727;48.892;9.544;2023-11-21T07:32:53;7.07;;;6.47;;
1467;SDS011;727;48.892;9.544;2023-11-21T07:35:20;7.15;;;6.10;;
1467;SDS011;727;48.892;9.544;2023-11-21T07:37:47;6.93;;;6.22;;
1467;SDS011;727;48.892;9.544;2023-11-21T07:40:14;5.80;;;4.00;;
1467;SDS011;727;48.892;9.544;2023-11-21T07:42:41;3.83;;;3.45;;
1467;SDS011;727;48.892;9.544;2023-11-21T07:45:08;5.55;;;4.13;;
1467;SDS011;727;48.892;9.544;2023-11-21T07:47:36;6.75;;;5.00;;
1467;SDS011;727;48.892;9.544;2023-11-21T07:50:06;5.00;;;4.40;;
1467;SDS011;727;48.892;9.544;2023-11-21T07:52:33;4.22;;;3.83;;
1467;SDS011;727;48.892;9.544;2023-11-21T07:55:00;3.55;;;3.25;;
1467;SDS011;727;48.892;9.544;2023-11-21T07:57:27;2.55;;;2.05;;
1467;SDS011;727;48.892;9.544;2023-11-21T07:59:54;4.00;;;2.60;;
1467;SDS011;727;48.892;9.544;2023-11-21T08:02:22;5.05;;;2.80;;
1467;SDS011;727;48.892;9.544;2023-11-21T08:04:51;3.58;;;3.13;;
1467;SDS011;727;48.892;9.544;2023-11-21T08:07:19;4.75;;;3.15;;
1467;SDS011;727;48.892;9.544;2023-11-21T08:09:46;3.00;;;2.33;;
1467;SDS011;727;48.892;9.544;2023-11-21T08:12:15;4.25;;;2.97;;
1467;SDS011;727;48.892;9.544;2023-11-21T08:14:42;6.13;;;5.35;;
1467;SDS011;727;48.892;9.544;2023-11-21T08:17:09;4.63;;;4.22;;
1467;SDS011;727;48.892;9.544;2023-11-21T08:19:36;3.60;;;3.30;;
1467;SDS011;727;48.892;9.544;2023-11-21T08:22:03;3.60;;;2.80;;
1467;SDS011;727;48.892;9.544;2023-11-21T08:24:34;3.47;;;3.08;;
1467;SDS011;727;48.892;9.544;2023-11-21T08:27:02;4.30;;;3.30;;
1467;SDS011;727;48.892;9.544;2023-11-21T08:29:29;8.80;;;3.20;;
1467;SDS011;727;48.892;9.544;2023-11-21T08:31:57;4.45;;;2.80;;
1467;SDS011;727;48.892;9.544;2023-11-21T08:34:25;4.40;;;3.95;;
1467;SDS011;727;48.892;9.544;2023-11-21T08:36:51;2.72;;;2.53;;
1467;SDS011;727;48.892;9.544;2023-11-21T08:39:18;8.05;;;2.85;;
1467;SDS011;727;48.892;9.544;2023-11-21T08:41:46;3.53;;;3.10;;
1467;SDS011;727;48.892;9.544;2023-11-21T08:44:13;3.72;;;3.22;;
1467;SDS011;727;48.892;9.544;2023-11-21T08:46:41;4.90;;;3.55;;
1467;SDS011;727;48.892;9.544;2023-11-21T08:49:10;4.18;;;3.40;;
1467;SDS011;727;48.892;9.544;2023-11-21T08:51:36;3.15;;;2.85;;
1467;SDS011;727;48.892;9.544;2023-11-21T08:54:04;4.15;;;3.28;;
1467;SDS011;727;48.892;9.544;2023-11-21T08:56:33;3.97;;;3.53;;
1467;SDS011;727;48.892;9.544;2023-11-21T08:59:01;3.75;;;3.33;;
1467;SDS011;727;48.892;9.544;2023-11-21T09:01:28;3.58;;;3.28;;
1467;SDS011;727;48.892;9.544;2023-11-21T09:03:56;4.40;;;3.80;;
1467;SDS011;727;48.892;9.544;2023-11-21T09:06:23;2.90;;;2.40;;
1467;SDS011;727;48.892;9.544;2023-11-21T09:08:50;5.87;;;3.07;;
1467;SDS011;727;48.892;9.544;2023-11-21T09:11:17;4.10;;;2.37;;
1467;SDS011;727;48.892;9.544;2023-11-21T09:13:45;6.17;;;2.20;;
1467;SDS011;727;48.892;9.544;2023-11-21T09:16:14;2.40;;;2.17;;
1467;SDS011;727;48.892;9.544;2023-11-21T09:18:41;4.50;;;2.97;;
1467;SDS011;727;48.892;9.544;2023-11-21T09:21:08;3.80;;;2.70;;
1467;SDS011;727;48.892;9.544;2023-11-21T09:23:35;4.27;;;3.87;;
1467;SDS011;727;48.892;9.544;2023-11-21T09:26:02;8.47;;;6.60;;
1467;SDS011;727;48.892;9.544;2023-11-21T09:28:30;3.53;;;3.23;;
1467;SDS011;727;48.892;9.544;2023-11-21T09:30:57;7.50;;;5.93;;
1467;SDS011;727;48.892;9.544;2023-11-21T09:33:25;27.83;;;13.70;;
1467;SDS011;727;48.892;9.544;2023-11-21T09:35:52;9.80;;;7.10;;
1467;SDS011;727;48.892;9.544;2023-11-21T09:38:19;6.60;;;4.00;;
1467;SDS011;727;48.892;9.544;2023-11-21T09:40:46;2.27;;;2.07;;
1467;SDS011;727;48.892;9.544;2023-11-21T09:43:14;3.47;;;2.67;;
1467;SDS011;727;48.892;9.544;2023-11-21T09:45:44;2.90;;;2.70;;
1467;SDS011;727;48.892;9.544;2023-11-21T09:48:12;3.13;;;2.93;;
1467;SDS011;727;48.892;9.544;2023-11-21T09:50:43;2.33;;;2.23;;
1467;SDS011;727;48.892;9.544;2023-11-21T09:53:12;2.67;;;2.47;;
1467;SDS011;727;48.892;9.544;2023-11-21T09:55:43;1.70;;;1.60;;
1467;SDS011;727;48.892;9.544;2023-11-21T09:58:12;2.60;;;1.80;;
1467;SDS011;727;48.892;9.544;2023-11-21T10:00:41;1.53;;;1.43;;
1467;SDS011;727;48.892;9.544;2023-11-21T10:03:08;2.03;;;1.83;;
1467;SDS011;727;48.892;9.544;2023-11-21T10:05:35;2.70;;;2.50;;
1467;SDS011;727;48.892;9.544;2023-11-21T10:08:06;2.00;;;1.90;;
1467;SDS011;727;48.892;9.544;2023-11-21T10:10:35;3.40;;;3.10;;
1467;SDS011;727;48.892;9.544;2023-11-21T10:13:04;2.40;;;2.30;;
1467;SDS011;727;48.892;9.544;2023-11-21T10:15:33;1.47;;;1.37;;
1467;SDS011;727;48.892;9.544;2023-11-21T10:18:02;1.73;;;1.60;;
1467;SDS011;727;48.892;9.544;2023-11-21T10:20:31;2.00;;;1.60;;
1467;SDS011;727;48.892;9.544;2023-11-21T10:22:58;1.60;;;1.50;;
1467;SDS011;727;48.892;9.544;2023-11-21T10:25:28;3.43;;;2.00;;
1467;SDS011;727;48.892;9.544;2023-11-21T10:27:57;2.00;;;1.90;;
1467;SDS011;727;48.892;9.544;2023-11-21T10:30:27;2.97;;;1.60;;
1467;SDS011;727;48.892;9.544;2023-11-21T10:32:58;1.70;;;1.60;;
1467;SDS011;727;48.892;9.544;2023-11-21T10:35:38;2.33;;;2.20;;
1467;SDS011;727;48.892;9.544;2023-11-21T10:38:06;2.40;;;2.20;;
1467;SDS011;727;48.892;9.544;2023-11-21T10:40:38;3.20;;;2.77;;
1467;SDS011;727;48.892;9.544;2023-11-21T10:43:07;1.97;;;1.87;;
1467;SDS011;727;48.892;9.544;2023-11-21T10:45:35;2.67;;;2.20;;
1467;SDS011;727;48.892;9.544;2023-11-21T10:48:04;2.40;;;2.07;;
1467;SDS011;727;48.892;9.544;2023-11-21T10:50:33;3.17;;;2.20;;
1467;SDS011;727;48.892;9.544;2023-11-21T10:53:01;3.93;;;2.20;;
1467;SDS011;727;48.892;9.544;2023-11-21T10:55:28;2.70;;;2.50;;
1467;SDS011;727;48.892;9.544;2023-11-21T10:57:57;3.90;;;1.87;;
1467;SDS011;727;48.892;9.544;2023-11-21T11:00:27;3.37;;;2.77;;
1467;SDS011;727;48.892;9.544;2023-11-21T11:02:55;2.00;;;1.73;;
1467;SDS011;727;48.892;9.544;2023-11-21T11:05:24;1.73;;;1.63;;
1467;SDS011;727;48.892;9.544;2023-11-21T11:08:02;2.10;;;2.00;;
1467;SDS011;727;48.892;9.544;2023-11-21T11:10:31;2.97;;;2.77;;
1467;SDS011;727;48.892;9.544;2023-11-21T11:12:59;5.00;;;4.23;;
1467;SDS011;727;48.892;9.544;2023-11-21T11:15:26;2.60;;;2.20;;
1467;SDS011;727;48.892;9.544;2023-11-21T11:17:54;2.00;;;1.90;;
1467;SDS011;727;48.892;9.544;2023-11-21T11:20:22;2.77;;;2.27;;
1467;SDS011;727;48.892;9.544;2023-11-21T11:22:52;2.77;;;2.50;;
1467;SDS011;727;48.892;9.544;2023-11-21T11:28:26;3.20;;;2.45;;
1467;SDS011;727;48.892;9.544;2023-11-21T11:31:00;2.00;;;1.90;;
1467;SDS011;727;48.892;9.544;2023-11-21T11:33:34;2.17;;;2.07;;
1467;SDS011;727;48.892;9.544;2023-11-21T11:36:07;2.20;;;1.60;;
1467;SDS011;727;48.892;9.544;2023-11-21T11:38:45;2.77;;;1.93;;
1467;SDS011;727;48.892;9.544;2023-11-21T11:41:15;5.77;;;1.47;;
1467;SDS011;727;48.892;9.544;2023-11-21T11:43:53;3.37;;;1.90;;
1467;SDS011;727;48.892;9.544;2023-11-21T11:46:19;2.07;;;1.93;;
1467;SDS011;727;48.892;9.544;2023-11-21T11:48:47;1.57;;;1.33;;
1467;SDS011;727;48.892;9.544;2023-11-21T11:51:15;1.70;;;1.60;;
1467;SDS011;727;48.892;9.544;2023-11-21T11:53:45;2.60;;;1.40;;
1467;SDS011;727;48.892;9.544;2023-11-21T11:56:23;2.70;;;1.77;;
1467;SDS011;727;48.892;9.544;2023-11-21T11:58:53;0.97;;;0.80;;
1467;SDS011;727;48.892;9.544;2023-11-21T12:01:22;2.93;;;1.50;;
1467;SDS011;727;48.892;9.544;2023-11-21T12:06:59;4.00;;;1.77;;
1467;SDS011;727;48.892;9.544;2023-11-21T12:09:28;1.07;;;1.07;;
1467;SDS011;727;48.892;9.544;2023-11-21T12:11:56;2.43;;;1.80;;
1467;SDS011;727;48.892;9.544;2023-11-21T12:14:24;1.50;;;1.40;;
1467;SDS011;727;48.892;9.544;2023-11-21T12:16:52;2.10;;;1.80;;
1467;SDS011;727;48.892;9.544;2023-11-21T12:19:19;1.63;;;1.40;;
1467;SDS011;727;48.892;9.544;2023-11-21T12:21:48;2.20;;;1.70;;
1467;SDS011;727;48.892;9.544;2023-11-21T12:24:15;2.60;;;2.37;;
1467;SDS011;727;48.892;9.544;2023-11-21T12:26:42;1.93;;;1.43;;
1467;SDS011;727;48.892;9.544;2023-11-21T12:29:10;1.67;;;1.57;;
1467;SDS011;727;48.892;9.544;2023-11-21T12:31:38;1.93;;;1.40;;
1467;SDS011;727;48.892;9.544;2023-11-21T12:34:06;2.73;;;1.57;;
1467;SDS011;727;48.892;9.544;2023-11-21T12:36:36;1.57;;;1.47;;
1467;SDS011;727;48.892;9.544;2023-11-21T12:39:03;2.30;;;1.83;;
1467;SDS011;727;48.892;9.544;2023-11-21T12:41:31;2.70;;;1.63;;
1467;SDS011;727;48.892;9.544;2023-11-21T12:43:58;5.90;;;1.80;;
1467;SDS011;727;48.892;9.544;2023-11-21T12:46:24;2.10;;;1.90;;
1467;SDS011;727;48.892;9.544;2023-11-21T12:48:55;1.70;;;1.60;;
1467;SDS011;727;48.892;9.544;2023-11-21T12:51:23;1.60;;;1.50;;
1467;SDS011;727;48.892;9.544;2023-11-21T12:53:50;2.63;;;2.20;;
1467;SDS011;727;48.892;9.544;2023-11-21T12:56:18;2.50;;;2.00;;
1467;SDS011;727;48.892;9.544;2023-11-21T12:58:48;2.10;;;2.00;;
1467;SDS011;727;48.892;9.544;2023-11-21T13:01:15;4.53;;;3.80;;
1467;SDS011;727;48.892;9.544;2023-11-21T13:03:45;2.37;;;2.00;;
1467;SDS011;727;48.892;9.544;2023-11-21T13:06:17;3.43;;;3.17;;
1467;SDS011;727;48.892;9.544;2023-11-21T13:08:45;2.77;;;2.57;;
1467;SDS011;727;48.892;9.544;2023-11-21T13:11:12;2.23;;;2.03;;
1467;SDS011;727;48.892;9.544;2023-11-21T13:13:40;2.40;;;2.07;;
1467;SDS011;727;48.892;9.544;2023-11-21T13:16:08;1.90;;;1.80;;
1467;SDS011;727;48.892;9.544;2023-11-21T13:18:36;2.50;;;2.30;;
1467;SDS011;727;48.892;9.544;2023-11-21T13:21:03;1.95;;;1.75;;
1467;SDS011;727;48.892;9.544;2023-11-21T13:23:36;7.20;;;4.50;;
1467;SDS011;727;48.892;9.544;2023-11-21T13:26:04;6.13;;;4.85;;
1467;SDS011;727;48.892;9.544;2023-11-21T13:28:31;10.07;;;7.30;;
1467;SDS011;727;48.892;9.544;2023-11-21T13:30:59;7.25;;;5.63;;
1467;SDS011;727;48.892;9.544;2023-11-21T13:33:34;9.25;;;5.82;;
1467;SDS011;727;48.892;9.544;2023-11-21T13:36:03;6.10;;;3.88;;
1467;SDS011;727;48.892;9.544;2023-11-21T13:38:32;14.48;;;10.45;;
1467;SDS011;727;48.892;9.544;2023-11-21T13:41:02;7.28;;;6.50;;
1467;SDS011;727;48.892;9.544;2023-11-21T13:43:32;5.40;;;4.10;;
1467;SDS011;727;48.892;9.544;2023-11-21T13:45:59;1.52;;;1.42;;
1467;SDS011;727;48.892;9.544;2023-11-21T13:48:38;2.50;;;2.13;;
1467;SDS011;727;48.892;9.544;2023-11-21T13:51:07;1.90;;;1.58;;
1467;SDS011;727;48.892;9.544;2023-11-21T13:53:42;1.27;;;1.15;;
1467;SDS011;727;48.892;9.544;2023-11-21T13:56:10;1.70;;;1.55;;
1467;SDS011;727;48.892;9.544;2023-11-21T13:58:41;1.65;;;1.48;;
1467;SDS011;727;48.892;9.544;2023-11-21T14:01:12;4.60;;;1.92;;
1467;SDS011;727;48.892;9.544;2023-11-21T14:03:57;1.10;;;1.00;;
1467;SDS011;727;48.892;9.544;2023-11-21T14:06:33;1.50;;;1.20;;
1467;SDS011;727;48.892;9.544;2023-11-21T14:09:07;2.35;;;1.83;;
1467;SDS011;727;48.892;9.544;2023-11-21T14:11:38;3.55;;;1.80;;
1467;SDS011;727;48.892;9.544;2023-11-21T14:14:04;1.50;;;1.40;;
1467;SDS011;727;48.892;9.544;2023-11-21T14:16:31;5.47;;;2.78;;
1467;SDS011;727;48.892;9.544;2023-11-21T14:18:58;1.75;;;1.63;;
1467;SDS011;727;48.892;9.544;2023-11-21T14:21:34;1.60;;;1.50;;
1467;SDS011;727;48.892;9.544;2023-11-21T14:24:01;2.13;;;1.92;;
1467;SDS011;727;48.892;9.544;2023-11-21T14:26:28;1.80;;;1.20;;
1467;SDS011;727;48.892;9.544;2023-11-21T14:28:57;1.92;;;1.70;;
1467;SDS011;727;48.892;9.544;2023-11-21T14:31:24;1.67;;;1.58;;
1467;SDS011;727;48.892;9.544;2023-11-21T14:33:52;3.88;;;2.03;;
1467;SDS011;727;48.892;9.544;2023-11-21T14:36:19;4.22;;;2.60;;
1467;SDS011;727;48.892;9.544;2023-11-21T14:38:46;4.93;;;3.35;;
1467;SDS011;727;48.892;9.544;2023-11-21T14:41:13;2.58;;;2.42;;
1467;SDS011;727;48.892;9.544;2023-11-21T14:43:41;2.78;;;2.58;;
1467;SDS011;727;48.892;9.544;2023-11-21T14:46:11;3.15;;;2.50;;
1467;SDS011;727;48.892;9.544;2023-11-21T14:48:42;2.90;;;2.40;;
1467;SDS011;727;48.892;9.544;2023-11-21T14:51:12;2.55;;;2.35;;
1467;SDS011;727;48.892;9.544;2023-11-21T14:53:52;2.38;;;1.92;;
1467;SDS011;727;48.892;9.544;2023-11-21T14:56:19;3.22;;;2.55;;
1467;SDS011;727;48.892;9.544;2023-11-21T14:58:51;3.20;;;2.10;;
1467;SDS011;727;48.892;9.544;2023-11-21T15:01:20;2.03;;;1.92;;
1467;SDS011;727;48.892;9.544;2023-11-21T15:03:58;3.10;;;1.90;;
1467;SDS011;727;48.892;9.544;2023-11-21T15:06:25;2.45;;;2.25;;
1467;SDS011;727;48.892;9.544;2023-11-21T15:08:54;2.25;;;2.10;;
1467;SDS011;727;48.892;9.544;2023-11-21T15:11:43;3.25;;;2.85;;
1467;SDS011;727;48.892;9.544;2023-11-21T15:14:09;3.10;;;2.80;;
1467;SDS011;727;48.892;9.544;2023-11-21T15:16:47;6.95;;;3.85;;
1467;SDS011;727;48.892;9.544;2023-11-21T15:19:18;5.45;;;4.00;;
1467;SDS011;727;48.892;9.544;2023-11-21T15:21:50;5.72;;;4.88;;
1467;SDS011;727;48.892;9.544;2023-11-21T15:24:17;6.90;;;5.97;;
1467;SDS011;727;48.892;9.544;2023-11-21T15:26:44;9.45;;;6.25;;
1467;SDS011;727;48.892;9.544;2023-11-21T15:29:11;6.53;;;4.72;;
1467;SDS011;727;48.892;9.544;2023-11-21T15:31:38;5.22;;;4.72;;
1467;SDS011;727;48.892;9.544;2023-11-21T15:34:10;11.25;;;5.60;;
1467;SDS011;727;48.892;9.544;2023-11-21T15:36:37;7.35;;;4.75;;
1467;SDS011;727;48.892;9.544;2023-11-21T15:39:04;8.75;;;5.70;;
1467;SDS011;727;48.892;9.544;2023-11-21T15:41:32;7.25;;;5.78;;